Time;durP1;ratioP1;P1;durP2;ratioP2;P2;SDS_P1;SDS_P2;PMS_P1;PMS_P2;Temp;Humidity;BMP_temperature;BMP_pressure;BME280_temperature;BME280_humidity;BME280_pressure;Samples;Min_cycle;Max_cycle;Signal;HPM_P1;HPM_P2
2022/03/14 00:00:25;;;;;;;16.55;12.60;;;9.90;99.90;;;;;;4996123;28;20144;-83
2022/03/14 00:02:51;;;;;;;13.23;9.98;;;9.90;99.90;;;;;;4995346;28;20137;-84
2022/03/14 00:05:17;;;;;;;13.07;10.25;;;9.90;99.90;;;;;;4992020;28;20034;-82
2022/03/14 00:07:45;;;;;;;17.00;11.10;;;9.80;99.90;;;;;;4993053;28;20124;-84
2022/03/14 00:10:13;;;;;;;14.23;10.23;;;9.80;99.90;;;;;;5002119;28;20041;-82
2022/03/14 00:12:42;;;;;;;14.90;10.18;;;9.80;99.90;;;;;;4999863;28;20064;-83
2022/03/14 00:15:11;;;;;;;12.63;9.80;;;9.80;99.90;;;;;;4992996;28;20038;-83
2022/03/14 00:17:37;;;;;;;11.45;8.60;;;9.70;99.90;;;;;;4994332;28;20473;-83
2022/03/14 00:20:04;;;;;;;15.15;8.20;;;9.70;99.90;;;;;;4995236;28;20042;-83
2022/03/14 00:22:30;;;;;;;11.48;8.40;;;9.70;99.90;;;;;;4996485;28;20128;-83
2022/03/14 00:24:56;;;;;;;11.93;8.10;;;9.70;99.90;;;;;;5011523;28;20049;-82
2022/03/14 00:27:22;;;;;;;9.32;6.93;;;9.70;99.90;;;;;;4990890;28;20044;-81
2022/03/14 00:29:47;;;;;;;11.30;6.82;;;9.70;99.90;;;;;;4997821;28;20037;-81
2022/03/14 00:32:13;;;;;;;11.45;7.00;;;9.70;99.90;;;;;;5010209;28;20105;-81
2022/03/14 00:34:40;;;;;;;9.77;6.85;;;9.70;99.90;;;;;;5014461;28;20072;-85
2022/03/14 00:37:05;;;;;;;9.30;6.20;;;9.70;99.90;;;;;;5013501;28;20046;-84
2022/03/14 00:39:31;;;;;;;8.65;6.07;;;9.70;99.90;;;;;;5015791;28;20152;-84
2022/03/14 00:41:57;;;;;;;8.48;6.18;;;9.70;99.90;;;;;;4979021;28;20445;-84
2022/03/14 00:44:23;;;;;;;7.30;5.32;;;9.70;99.90;;;;;;5017147;28;20038;-85
2022/03/14 00:46:50;;;;;;;7.95;5.68;;;9.70;99.90;;;;;;5010122;28;20049;-83
2022/03/14 00:49:16;;;;;;;8.32;5.50;;;9.70;99.90;;;;;;5014862;28;20092;-83
2022/03/14 00:51:41;;;;;;;7.38;5.03;;;9.70;99.90;;;;;;4992072;28;20054;-84
2022/03/14 00:54:07;;;;;;;7.80;6.05;;;9.60;99.90;;;;;;5010741;28;20038;-84
2022/03/14 00:56:33;;;;;;;9.07;5.15;;;9.60;99.90;;;;;;4993095;28;20046;-84
2022/03/14 00:59:01;;;;;;;8.07;5.82;;;9.60;99.90;;;;;;4996278;28;20083;-82
2022/03/14 01:01:27;;;;;;;7.60;4.97;;;9.60;99.90;;;;;;5004608;28;20045;-83
2022/03/14 01:03:54;;;;;;;6.50;4.93;;;9.60;99.90;;;;;;4993358;28;20053;-83
2022/03/14 01:06:20;;;;;;;7.38;4.82;;;9.60;99.90;;;;;;5008270;28;20038;-83
2022/03/14 01:08:46;;;;;;;6.68;5.05;;;9.60;99.90;;;;;;4995110;28;20211;-83
2022/03/14 01:11:11;;;;;;;7.47;5.35;;;9.50;99.90;;;;;;4991453;28;21394;-83
2022/03/14 01:13:37;;;;;;;7.75;5.32;;;9.50;99.90;;;;;;4996596;28;20053;-83
2022/03/14 01:16:03;;;;;;;7.35;5.05;;;9.40;99.90;;;;;;5013743;28;20049;-84
2022/03/14 01:18:29;;;;;;;9.07;6.25;;;9.40;99.90;;;;;;5011253;28;20073;-85
2022/03/14 01:20:56;;;;;;;8.40;6.00;;;9.40;99.90;;;;;;5015988;28;20038;-84
2022/03/14 01:23:21;;;;;;;10.27;7.10;;;9.40;99.90;;;;;;4994183;28;20057;-83
2022/03/14 01:25:48;;;;;;;9.43;6.97;;;9.30;99.90;;;;;;5002298;28;20041;-84
2022/03/14 01:28:15;;;;;;;11.10;7.15;;;9.30;99.90;;;;;;4991558;28;20505;-85
2022/03/14 01:30:43;;;;;;;10.98;8.18;;;9.30;99.90;;;;;;5017865;28;20442;-86
2022/03/14 01:33:13;;;;;;;9.65;7.78;;;9.30;99.90;;;;;;5014813;28;21143;-84
2022/03/14 01:35:40;;;;;;;11.52;8.38;;;9.30;99.90;;;;;;5014639;28;20045;-83
2022/03/14 01:38:06;;;;;;;9.27;6.80;;;9.30;99.90;;;;;;5012812;28;20180;-80
2022/03/14 01:40:32;;;;;;;11.73;8.07;;;9.30;99.90;;;;;;4990065;28;20128;-85
2022/03/14 01:42:58;;;;;;;10.68;7.20;;;9.30;99.90;;;;;;4994033;28;20046;-83
2022/03/14 01:45:24;;;;;;;10.30;7.40;;;9.30;99.90;;;;;;4994972;28;20064;-82
2022/03/14 01:47:50;;;;;;;9.27;6.88;;;9.30;99.90;;;;;;5016936;28;20046;-82
2022/03/14 01:50:17;;;;;;;9.45;6.57;;;9.30;99.90;;;;;;5001894;28;20050;-84
2022/03/14 01:52:43;;;;;;;7.85;6.38;;;9.30;99.90;;;;;;5018385;28;20041;-84
2022/03/14 01:55:10;;;;;;;9.70;6.38;;;9.30;99.90;;;;;;5017267;28;20041;-84
2022/03/14 01:57:37;;;;;;;9.63;6.80;;;9.30;99.90;;;;;;4995961;28;20124;-82
2022/03/14 02:00:08;;;;;;;10.50;6.75;;;9.30;99.90;;;;;;4997424;28;20493;-81
2022/03/14 02:02:34;;;;;;;12.65;6.82;;;9.30;99.90;;;;;;4991781;28;20049;-83
2022/03/14 02:05:00;;;;;;;9.90;6.65;;;9.30;99.90;;;;;;4993168;28;20049;-83
2022/03/14 02:07:26;;;;;;;8.35;6.00;;;9.30;99.90;;;;;;5011191;28;20382;-82
2022/03/14 02:09:52;;;;;;;11.13;6.88;;;9.30;99.90;;;;;;5000936;28;20044;-82
2022/03/14 02:12:18;;;;;;;8.85;6.88;;;9.20;99.90;;;;;;5012188;28;20064;-81
2022/03/14 02:14:44;;;;;;;9.52;7.40;;;9.20;99.90;;;;;;4993105;28;20037;-84
2022/03/14 02:17:15;;;;;;;10.88;8.25;;;9.20;99.90;;;;;;5019683;28;20038;-84
2022/03/14 02:19:41;;;;;;;12.90;7.80;;;9.10;99.90;;;;;;4992804;28;20052;-83
2022/03/14 02:22:13;;;;;;;13.98;8.85;;;9.10;99.90;;;;;;4997064;28;20057;-82
2022/03/14 02:24:44;;;;;;;15.27;10.63;;;9.10;99.90;;;;;;4989874;28;20468;-82
2022/03/14 02:27:14;;;;;;;17.23;10.52;;;9.00;99.90;;;;;;4998163;28;20038;-83
2022/03/14 02:29:41;;;;;;;15.93;11.52;;;9.00;99.90;;;;;;5009479;28;20069;-84
2022/03/14 02:32:11;;;;;;;17.33;12.10;;;8.90;99.90;;;;;;4996464;28;20048;-84
2022/03/14 02:34:37;;;;;;;18.40;12.93;;;8.90;99.90;;;;;;5009087;28;20049;-84
2022/03/14 02:37:04;;;;;;;19.52;13.80;;;8.90;99.90;;;;;;4994199;28;20563;-81
2022/03/14 02:39:32;;;;;;;20.83;14.05;;;8.80;99.90;;;;;;4994576;28;20057;-82
2022/03/14 02:42:01;;;;;;;22.23;15.88;;;8.80;99.90;;;;;;4993945;28;20582;-84
2022/03/14 02:44:27;;;;;;;23.80;15.15;;;8.80;99.90;;;;;;5012845;28;20052;-84
2022/03/14 02:46:53;;;;;;;21.25;15.35;;;8.80;99.90;;;;;;4990327;28;20084;-85
2022/03/14 02:49:19;;;;;;;22.80;15.25;;;8.70;99.90;;;;;;4996208;28;20045;-84
2022/03/14 02:51:46;;;;;;;23.27;15.73;;;8.70;99.90;;;;;;4989383;28;20406;-84
2022/03/14 02:54:12;;;;;;;27.02;16.50;;;8.70;99.90;;;;;;4998863;28;20582;-84
2022/03/14 02:56:39;;;;;;;24.23;17.65;;;8.70;99.90;;;;;;4998736;28;20045;-85
2022/03/14 02:59:07;;;;;;;23.52;16.27;;;8.70;99.90;;;;;;5021948;28;20498;-85
2022/03/14 03:01:34;;;;;;;27.50;18.00;;;8.70;99.90;;;;;;4994833;28;20041;-83
2022/03/14 03:03:59;;;;;;;23.60;17.02;;;8.60;99.90;;;;;;5008194;28;20045;-83
2022/03/14 03:06:25;;;;;;;28.55;17.65;;;8.60;99.90;;;;;;4986474;28;20537;-84
2022/03/14 03:08:52;;;;;;;23.25;17.40;;;8.60;99.90;;;;;;4998392;28;20469;-83
2022/03/14 03:11:21;;;;;;;27.80;18.75;;;8.60;99.90;;;;;;4998106;28;20053;-81
2022/03/14 03:13:48;;;;;;;26.23;17.00;;;8.60;99.90;;;;;;4994997;28;20057;-82
2022/03/14 03:16:15;;;;;;;25.50;17.65;;;8.60;99.90;;;;;;4987777;28;20042;-82
2022/03/14 03:18:42;;;;;;;26.98;17.58;;;8.60;99.90;;;;;;4994070;28;20083;-84
2022/03/14 03:21:08;;;;;;;23.45;16.17;;;8.60;99.90;;;;;;4988397;28;20046;-83
2022/03/14 03:23:34;;;;;;;24.90;16.77;;;8.60;99.90;;;;;;4994904;28;20076;-82
2022/03/14 03:26:00;;;;;;;22.58;15.43;;;8.60;99.90;;;;;;5009398;28;20080;-81
2022/03/14 03:28:26;;;;;;;20.60;14.93;;;8.60;99.90;;;;;;4997062;28;20069;-82
2022/03/14 03:30:52;;;;;;;21.23;15.20;;;8.60;99.90;;;;;;4997418;28;20053;-82
2022/03/14 03:33:18;;;;;;;20.25;13.95;;;8.60;99.90;;;;;;4987271;28;20513;-82
2022/03/14 03:35:44;;;;;;;20.92;13.73;;;8.60;99.90;;;;;;4992245;28;20052;-83
2022/03/14 03:38:09;;;;;;;22.65;14.90;;;8.70;99.90;;;;;;4992624;28;20061;-83
2022/03/14 03:40:35;;;;;;;17.02;12.90;;;8.70;99.90;;;;;;5009406;28;20058;-84
2022/03/14 03:43:01;;;;;;;16.95;12.50;;;8.70;99.90;;;;;;5002082;28;20088;-77
2022/03/14 03:45:30;;;;;;;18.27;12.70;;;8.70;99.90;;;;;;5030221;28;20481;-84
2022/03/14 03:47:55;;;;;;;16.38;11.73;;;8.60;99.90;;;;;;5005661;28;20038;-84
2022/03/14 03:50:21;;;;;;;19.20;12.07;;;8.70;99.90;;;;;;5007407;28;20050;-85
2022/03/14 03:52:47;;;;;;;15.57;11.13;;;8.70;99.90;;;;;;4999319;28;20045;-81
2022/03/14 03:55:12;;;;;;;15.73;11.15;;;8.70;99.90;;;;;;4999405;28;20132;-81
2022/03/14 03:57:38;;;;;;;15.65;10.55;;;8.80;99.90;;;;;;5010945;28;20065;-83
2022/03/14 04:00:07;;;;;;;13.52;9.65;;;8.80;99.90;;;;;;4997692;28;20049;-84
2022/03/14 04:02:36;;;;;;;15.02;10.70;;;8.80;99.90;;;;;;4992058;28;20056;-84
2022/03/14 04:05:04;;;;;;;14.40;9.60;;;8.80;99.90;;;;;;4991827;28;20041;-80
2022/03/14 04:07:32;;;;;;;15.80;9.77;;;8.90;99.90;;;;;;5015112;28;20060;-81
2022/03/14 04:09:59;;;;;;;12.20;9.20;;;8.90;99.90;;;;;;5013994;28;20049;-81
2022/03/14 04:12:28;;;;;;;13.35;9.48;;;8.90;99.90;;;;;;4996194;28;20042;-82
2022/03/14 04:14:58;;;;;;;12.38;8.90;;;8.90;99.90;;;;;;4997358;28;20049;-83
2022/03/14 04:17:25;;;;;;;11.05;8.48;;;8.90;99.90;;;;;;4991874;28;20046;-83
2022/03/14 04:19:52;;;;;;;11.90;8.88;;;8.90;99.90;;;;;;4991773;28;20038;-83
2022/03/14 04:22:21;;;;;;;12.32;8.60;;;8.90;99.90;;;;;;4991461;28;20048;-83
2022/03/14 04:24:46;;;;;;;11.30;8.23;;;8.90;99.90;;;;;;5016679;28;20053;-82
2022/03/14 04:27:12;;;;;;;10.75;7.70;;;8.90;99.90;;;;;;5013221;28;20045;-83
2022/03/14 04:29:38;;;;;;;9.70;7.25;;;8.90;99.90;;;;;;5016058;28;20053;-83
2022/03/14 04:32:04;;;;;;;10.95;6.88;;;8.90;99.90;;;;;;5012884;28;20045;-83
2022/03/14 04:34:30;;;;;;;9.80;5.97;;;8.90;99.90;;;;;;5022123;28;20401;-83
2022/03/14 04:36:57;;;;;;;8.68;5.93;;;8.90;99.90;;;;;;5013650;28;20050;-82
2022/03/14 04:39:22;;;;;;;9.45;7.10;;;8.90;99.90;;;;;;4997753;28;20044;-83
2022/03/14 04:41:49;;;;;;;7.05;5.15;;;8.90;99.90;;;;;;4999343;28;20125;-83
2022/03/14 04:44:14;;;;;;;7.38;5.32;;;9.00;99.90;;;;;;5011796;28;20038;-82
2022/03/14 04:46:40;;;;;;;7.13;5.43;;;9.00;99.90;;;;;;4999001;28;20038;-83
2022/03/14 04:49:08;;;;;;;6.85;5.18;;;9.00;99.90;;;;;;5008665;28;20513;-83
2022/03/14 04:51:36;;;;;;;7.35;5.28;;;9.00;99.90;;;;;;5004950;28;20104;-82
2022/03/14 04:54:02;;;;;;;7.75;5.28;;;9.00;99.90;;;;;;5001532;28;20046;-81
2022/03/14 04:56:28;;;;;;;6.85;5.00;;;9.00;99.90;;;;;;4999420;28;20054;-82
2022/03/14 04:58:53;;;;;;;7.03;5.18;;;8.90;99.90;;;;;;5003976;28;20033;-83
2022/03/14 05:01:25;;;;;;;8.00;4.75;;;9.00;99.90;;;;;;4996420;28;20489;-83
2022/03/14 05:03:52;;;;;;;8.73;4.65;;;9.00;99.90;;;;;;4998076;28;20180;-83
2022/03/14 05:06:21;;;;;;;7.20;4.38;;;8.90;99.90;;;;;;4996507;28;20065;-83
2022/03/14 05:08:47;;;;;;;5.55;3.85;;;8.90;99.90;;;;;;4998577;28;20041;-84
2022/03/14 05:11:14;;;;;;;4.53;3.50;;;8.90;99.90;;;;;;5013466;28;20042;-84
2022/03/14 05:13:41;;;;;;;5.05;3.40;;;8.90;99.90;;;;;;4998222;28;20066;-85
2022/03/14 05:16:08;;;;;;;4.97;3.47;;;9.00;99.90;;;;;;4997446;28;20056;-83
2022/03/14 05:18:37;;;;;;;5.07;3.72;;;9.00;99.90;;;;;;5010519;28;20050;-81
2022/03/14 05:21:03;;;;;;;4.82;3.28;;;9.00;99.90;;;;;;4995831;28;20068;-82
2022/03/14 05:23:28;;;;;;;5.75;3.63;;;8.90;99.90;;;;;;5015164;28;20647;-83
2022/03/14 05:25:55;;;;;;;5.40;3.38;;;9.00;99.90;;;;;;4999072;28;20553;-84
2022/03/14 05:28:21;;;;;;;4.78;3.47;;;9.00;99.90;;;;;;5014337;28;20176;-82
2022/03/14 05:30:47;;;;;;;5.25;3.63;;;9.00;99.90;;;;;;4993564;28;20038;-79
2022/03/14 05:33:13;;;;;;;6.63;3.60;;;9.00;99.90;;;;;;4998707;28;20057;-79
2022/03/14 05:35:39;;;;;;;5.30;3.58;;;9.00;99.90;;;;;;5018600;28;20053;-79
2022/03/14 05:38:05;;;;;;;5.00;3.33;;;9.00;99.90;;;;;;4997147;28;20478;-75
2022/03/14 05:40:30;;;;;;;5.45;3.53;;;9.00;99.90;;;;;;4995604;28;20042;-76
2022/03/14 05:42:57;;;;;;;5.68;3.85;;;9.00;99.90;;;;;;4992627;28;20050;-76
2022/03/14 05:45:23;;;;;;;6.03;3.65;;;9.00;99.90;;;;;;4997914;28;20506;-75
2022/03/14 05:47:49;;;;;;;5.35;3.78;;;9.00;99.90;;;;;;4992430;28;20128;-75
2022/03/14 05:50:15;;;;;;;5.55;3.65;;;9.00;99.90;;;;;;5011152;28;20042;-76
2022/03/14 05:52:42;;;;;;;4.60;3.40;;;9.00;99.90;;;;;;4982263;28;20681;-77
2022/03/14 05:55:17;;;;;;;4.68;3.70;;;9.00;99.90;;;;;;4989038;28;20069;-75
2022/03/14 05:57:44;;;;;;;4.82;3.63;;;9.00;99.90;;;;;;4987588;28;20050;-74
2022/03/14 06:00:12;;;;;;;5.88;3.92;;;9.00;99.90;;;;;;4987410;28;20052;-76
2022/03/14 06:02:38;;;;;;;5.65;4.05;;;9.00;99.90;;;;;;4993844;28;20053;-76
2022/03/14 06:05:04;;;;;;;5.82;3.65;;;9.00;99.90;;;;;;5003600;28;20374;-77
2022/03/14 06:07:30;;;;;;;5.97;3.95;;;9.00;99.90;;;;;;4988690;28;20099;-76
2022/03/14 06:09:56;;;;;;;5.28;3.88;;;9.00;99.90;;;;;;4996527;28;20057;-76
2022/03/14 06:12:29;;;;;;;4.97;3.80;;;9.00;99.90;;;;;;4986901;28;20038;-77
2022/03/14 06:15:00;;;;;;;4.85;3.80;;;9.00;99.90;;;;;;4994832;28;20056;-76
2022/03/14 06:17:26;;;;;;;6.53;3.97;;;9.00;99.90;;;;;;4990373;28;20038;-76
2022/03/14 06:19:52;;;;;;;6.05;4.10;;;9.10;99.90;;;;;;4999024;28;20045;-76
2022/03/14 06:22:21;;;;;;;5.57;3.85;;;9.10;99.90;;;;;;4994464;28;20054;-73
2022/03/14 06:24:48;;;;;;;5.25;3.83;;;9.10;99.90;;;;;;4995773;28;20382;-73
2022/03/14 06:27:19;;;;;;;5.28;3.75;;;9.10;99.90;;;;;;4991414;28;20046;-73
2022/03/14 06:29:45;;;;;;;5.28;3.30;;;9.10;99.90;;;;;;4992328;28;20066;-72
2022/03/14 06:32:11;;;;;;;5.95;3.90;;;9.10;99.90;;;;;;4985277;28;20498;-71
2022/03/14 06:34:38;;;;;;;5.30;3.97;;;9.20;99.90;;;;;;4993397;28;20056;-72
2022/03/14 06:37:07;;;;;;;5.53;3.75;;;9.20;99.90;;;;;;4993224;28;20163;-72
2022/03/14 06:39:32;;;;;;;7.68;4.07;;;9.20;99.90;;;;;;5010554;28;20133;-71
2022/03/14 06:41:58;;;;;;;7.40;4.15;;;9.20;99.90;;;;;;5009935;28;20128;-72
2022/03/14 06:44:27;;;;;;;5.65;4.18;;;9.30;99.90;;;;;;5005876;28;20096;-72
2022/03/14 06:46:54;;;;;;;6.05;3.90;;;9.30;99.90;;;;;;5004211;28;20104;-73
2022/03/14 06:49:21;;;;;;;6.75;4.68;;;9.30;99.90;;;;;;5007746;28;20133;-75
2022/03/14 06:51:47;;;;;;;6.38;4.88;;;9.30;99.90;;;;;;4984437;28;20050;-75
2022/03/14 06:54:14;;;;;;;7.35;5.15;;;9.30;99.90;;;;;;4990069;28;20030;-75
2022/03/14 06:56:42;;;;;;;8.07;5.97;;;9.30;99.90;;;;;;4994074;28;20045;-76
2022/03/14 06:59:08;;;;;;;8.23;5.68;;;9.30;99.90;;;;;;5004109;28;20073;-75
2022/03/14 07:01:34;;;;;;;7.78;5.90;;;9.30;99.90;;;;;;5016073;28;20061;-76
2022/03/14 07:04:02;;;;;;;8.15;6.10;;;9.30;99.90;;;;;;5016453;28;20041;-76
2022/03/14 07:06:28;;;;;;;9.20;6.53;;;9.30;99.90;;;;;;5008973;28;20055;-76
2022/03/14 07:08:54;;;;;;;8.25;6.60;;;9.30;99.90;;;;;;5011591;28;20472;-76
2022/03/14 07:11:21;;;;;;;9.18;7.38;;;9.40;99.90;;;;;;5001472;28;20050;-76
2022/03/14 07:13:46;;;;;;;10.27;7.38;;;9.40;99.90;;;;;;5009608;28;20312;-76
2022/03/14 07:16:12;;;;;;;9.18;7.40;;;9.40;99.90;;;;;;5013724;28;20120;-75
2022/03/14 07:18:37;;;;;;;8.85;6.82;;;9.40;99.90;;;;;;4993292;28;20046;-76
2022/03/14 07:21:03;;;;;;;10.23;7.30;;;9.40;99.90;;;;;;4995199;28;20046;-75
2022/03/14 07:23:29;;;;;;;9.18;6.68;;;9.40;99.90;;;;;;5006796;28;20046;-76
2022/03/14 07:25:55;;;;;;;8.57;6.90;;;9.40;99.90;;;;;;4982292;28;20050;-75
2022/03/14 07:28:20;;;;;;;8.73;6.57;;;9.40;99.90;;;;;;5007830;28;20050;-75
2022/03/14 07:30:46;;;;;;;11.35;7.88;;;9.40;99.90;;;;;;5004834;28;20056;-76
2022/03/14 07:33:12;;;;;;;10.95;7.60;;;9.40;99.90;;;;;;4993201;28;20072;-76
2022/03/14 07:35:38;;;;;;;11.38;7.63;;;9.40;99.90;;;;;;5002040;28;20073;-77
2022/03/14 07:38:05;;;;;;;9.73;7.97;;;9.40;99.90;;;;;;5019678;28;20061;-76
2022/03/14 07:40:31;;;;;;;11.60;8.82;;;9.40;99.90;;;;;;5007185;28;20129;-76
2022/03/14 07:42:59;;;;;;;11.65;8.77;;;9.40;99.90;;;;;;4996625;28;20053;-72
2022/03/14 07:45:26;;;;;;;12.07;9.05;;;9.50;99.90;;;;;;5010260;28;20060;-75
2022/03/14 07:47:53;;;;;;;12.18;9.20;;;9.50;99.90;;;;;;5015626;28;20133;-75
2022/03/14 07:50:19;;;;;;;12.07;9.13;;;9.50;99.90;;;;;;5008318;28;20040;-72
2022/03/14 07:52:47;;;;;;;13.52;9.32;;;9.50;99.90;;;;;;4999575;28;20060;-74
2022/03/14 07:55:14;;;;;;;15.40;9.68;;;9.50;99.90;;;;;;5019329;28;20048;-75
2022/03/14 07:57:40;;;;;;;13.65;9.93;;;9.60;99.90;;;;;;5018653;28;20080;-75
2022/03/14 08:00:09;;;;;;;12.98;9.77;;;9.60;99.90;;;;;;5012912;28;20117;-76
2022/03/14 08:02:35;;;;;;;12.63;9.70;;;9.50;99.90;;;;;;4998495;28;20396;-75
2022/03/14 08:05:00;;;;;;;13.77;10.25;;;9.60;99.90;;;;;;5019365;28;20053;-75
2022/03/14 08:07:27;;;;;;;14.80;9.23;;;9.50;99.90;;;;;;5015202;28;20605;-76
2022/03/14 08:09:54;;;;;;;14.50;10.63;;;9.50;99.90;;;;;;5013989;28;20046;-75
2022/03/14 08:12:22;;;;;;;13.57;10.75;;;9.50;99.90;;;;;;5010447;28;20071;-75
2022/03/14 08:14:52;;;;;;;16.02;11.55;;;9.50;99.90;;;;;;5008458;28;20050;-75
2022/03/14 08:17:18;;;;;;;17.10;12.55;;;9.50;99.90;;;;;;4991307;28;20120;-76
2022/03/14 08:19:44;;;;;;;17.17;13.35;;;9.50;99.90;;;;;;4997097;28;20074;-76
2022/03/14 08:22:10;;;;;;;18.25;14.18;;;9.50;99.90;;;;;;4994385;28;20050;-75
2022/03/14 08:24:36;;;;;;;17.73;13.35;;;9.50;99.90;;;;;;4992618;28;20050;-75
2022/03/14 08:27:02;;;;;;;24.33;16.30;;;9.50;99.90;;;;;;5009950;28;20408;-75
2022/03/14 08:29:28;;;;;;;20.65;15.02;;;9.50;99.90;;;;;;4998953;28;20037;-75
2022/03/14 08:31:57;;;;;;;20.77;16.02;;;9.50;99.90;;;;;;5014467;28;20100;-75
2022/03/14 08:34:23;;;;;;;22.42;16.13;;;9.50;99.90;;;;;;4992999;28;20121;-75
2022/03/14 08:36:49;;;;;;;24.70;16.80;;;9.50;99.90;;;;;;5008818;28;20045;-75
2022/03/14 08:39:14;;;;;;;22.13;15.02;;;9.50;99.90;;;;;;5009573;28;20048;-75
2022/03/14 08:41:40;;;;;;;25.02;15.93;;;9.50;99.90;;;;;;5011641;28;20494;-75
2022/03/14 08:44:09;;;;;;;40.67;22.67;;;9.50;99.90;;;;;;4996957;28;20042;-75
2022/03/14 08:46:35;;;;;;;40.47;20.88;;;9.50;99.90;;;;;;4993495;28;20064;-74
2022/03/14 08:49:01;;;;;;;36.53;20.00;;;9.40;99.90;;;;;;5016827;28;20050;-74
2022/03/14 08:51:27;;;;;;;34.55;18.95;;;9.40;99.90;;;;;;4999272;28;20033;-75
2022/03/14 08:53:53;;;;;;;38.45;19.75;;;9.30;99.90;;;;;;5008342;28;20042;-74
2022/03/14 08:56:20;;;;;;;37.70;20.98;;;9.30;99.90;;;;;;5005944;28;20564;-74
2022/03/14 08:58:45;;;;;;;35.88;20.15;;;9.30;99.90;;;;;;5013775;28;20404;-74
2022/03/14 09:01:12;;;;;;;36.28;19.92;;;9.30;99.90;;;;;;5007328;28;20189;-75
2022/03/14 09:03:38;;;;;;;37.47;19.88;;;9.20;99.90;;;;;;4990513;28;20135;-76
2022/03/14 09:06:05;;;;;;;39.65;19.58;;;9.30;99.90;;;;;;5007849;28;20049;-74
2022/03/14 09:08:31;;;;;;;31.63;15.68;;;9.20;99.90;;;;;;4999457;28;20045;-75
2022/03/14 09:11:00;;;;;;;36.58;16.70;;;9.20;99.90;;;;;;5012984;28;20400;-74
2022/03/14 09:13:26;;;;;;;36.25;15.85;;;9.20;99.90;;;;;;4990782;28;20041;-75
2022/03/14 09:15:52;;;;;;;33.20;14.52;;;9.20;99.90;;;;;;5010982;28;20049;-75
2022/03/14 09:18:18;;;;;;;29.40;14.60;;;9.20;99.90;;;;;;4998216;28;20048;-75
2022/03/14 09:20:49;;;;;;;30.67;14.73;;;9.30;99.90;;;;;;4994850;28;20042;-75
2022/03/14 09:23:20;;;;;;;30.20;14.00;;;9.20;99.90;;;;;;4990337;28;20528;-75
2022/03/14 09:25:49;;;;;;;25.45;12.65;;;9.30;99.90;;;;;;5009308;28;20050;-75
2022/03/14 09:28:15;;;;;;;28.08;12.88;;;9.30;99.90;;;;;;5010465;28;20625;-75
2022/03/14 09:30:41;;;;;;;25.50;12.10;;;9.30;99.90;;;;;;5009590;28;20480;-76
2022/03/14 09:33:07;;;;;;;25.83;12.48;;;9.40;99.90;;;;;;5007966;28;20038;-75
2022/03/14 09:35:34;;;;;;;21.48;9.80;;;9.50;99.90;;;;;;5007620;28;20422;-76
2022/03/14 09:38:00;;;;;;;20.13;9.13;;;9.50;99.90;;;;;;4986901;28;20133;-75
2022/03/14 09:40:29;;;;;;;21.65;8.50;;;9.60;99.90;;;;;;4990360;28;20041;-75
2022/03/14 09:42:55;;;;;;;19.30;8.93;;;9.70;99.90;;;;;;4992061;28;20060;-75
2022/03/14 09:45:22;;;;;;;23.17;8.20;;;9.80;99.90;;;;;;4988795;28;20076;-75
2022/03/14 09:47:51;;;;;;;17.38;6.95;;;9.90;99.90;;;;;;4991071;28;20121;-75
2022/03/14 09:50:30;;;;;;;17.25;7.55;;;10.00;99.90;;;;;;5013785;28;20049;-74
2022/03/14 09:52:58;;;;;;;13.25;6.82;;;10.00;99.90;;;;;;4992571;28;20056;-74
2022/03/14 09:55:25;;;;;;;17.85;7.07;;;10.10;99.90;;;;;;5006951;28;20073;-74
2022/03/14 09:57:51;;;;;;;15.43;5.15;;;10.10;99.90;;;;;;5006753;28;20057;-75
2022/03/14 10:00:17;;;;;;;15.65;6.10;;;10.10;99.90;;;;;;5009270;28;20135;-75
2022/03/14 10:02:43;;;;;;;11.95;5.10;;;10.20;99.90;;;;;;5008381;28;20045;-75
2022/03/14 10:05:12;;;;;;;18.63;6.72;;;10.20;99.90;;;;;;5008202;28;20122;-75
2022/03/14 10:07:39;;;;;;;14.00;6.28;;;10.30;99.90;;;;;;5007625;28;20046;-75
2022/03/14 10:10:05;;;;;;;14.02;4.15;;;10.30;99.90;;;;;;4989908;28;20116;-75
2022/03/14 10:12:32;;;;;;;15.25;6.45;;;10.30;99.90;;;;;;5007778;28;20043;-75
2022/03/14 10:15:02;;;;;;;12.20;5.63;;;10.20;99.90;;;;;;4989990;28;20054;-75
2022/03/14 10:17:28;;;;;;;13.73;5.78;;;10.20;99.90;;;;;;5008720;28;20405;-75
2022/03/14 10:19:55;;;;;;;19.70;6.65;;;10.10;99.90;;;;;;4991630;28;20049;-75
2022/03/14 10:22:22;;;;;;;11.02;5.60;;;10.00;99.90;;;;;;5010073;28;20548;-75
2022/03/14 10:24:51;;;;;;;13.93;6.95;;;10.00;99.90;;;;;;4990829;28;20045;-75
2022/03/14 10:27:19;;;;;;;22.60;6.32;;;10.00;99.90;;;;;;5009252;28;20469;-75
2022/03/14 10:29:49;;;;;;;15.65;6.13;;;10.00;99.90;;;;;;5008485;28;20042;-74
2022/03/14 10:32:28;;;;;;;17.50;7.13;;;10.10;99.90;;;;;;5008193;28;20781;-75
2022/03/14 10:34:57;;;;;;;16.67;6.70;;;10.20;99.90;;;;;;4995902;28;20043;-75
2022/03/14 10:37:25;;;;;;;16.58;6.63;;;10.20;99.90;;;;;;4991774;28;20034;-75
2022/03/14 10:40:00;;;;;;;19.27;6.90;;;10.30;99.90;;;;;;4991443;28;20497;-75
2022/03/14 10:42:26;;;;;;;22.38;9.15;;;10.30;99.90;;;;;;4993738;28;20042;-75
2022/03/14 10:44:54;;;;;;;17.13;8.45;;;10.30;99.90;;;;;;5007428;28;20073;-75
2022/03/14 10:47:23;;;;;;;20.33;8.00;;;10.40;99.90;;;;;;4991579;28;20104;-75
2022/03/14 10:49:49;;;;;;;15.40;7.72;;;10.30;99.90;;;;;;4988406;28;20042;-75
2022/03/14 10:52:20;;;;;;;24.73;8.10;;;10.40;99.90;;;;;;5007861;28;20054;-75
2022/03/14 10:54:46;;;;;;;15.05;6.22;;;10.30;99.90;;;;;;5008315;28;20038;-75
2022/03/14 10:57:25;;;;;;;20.63;7.22;;;10.30;99.90;;;;;;4991446;28;20497;-75
2022/03/14 10:59:52;;;;;;;21.95;9.32;;;10.20;99.90;;;;;;4991668;28;20072;-75
2022/03/14 11:02:21;;;;;;;22.67;9.10;;;10.30;99.90;;;;;;4999515;28;20037;-74
2022/03/14 11:04:48;;;;;;;21.52;10.07;;;10.30;99.90;;;;;;5012043;28;20045;-75
2022/03/14 11:07:16;;;;;;;21.98;9.02;;;10.30;99.90;;;;;;4988429;28;20172;-75
2022/03/14 11:09:44;;;;;;;20.95;8.40;;;10.30;99.90;;;;;;5012874;28;20041;-76
2022/03/14 11:12:16;;;;;;;22.80;10.35;;;10.30;99.90;;;;;;5011490;28;20041;-75
2022/03/14 11:14:42;;;;;;;22.75;11.55;;;10.40;99.90;;;;;;5002687;28;20046;-75
2022/03/14 11:17:20;;;;;;;20.90;9.07;;;10.40;99.90;;;;;;4997356;28;20373;-75
2022/03/14 11:19:46;;;;;;;21.08;10.32;;;10.40;99.90;;;;;;5011996;28;20061;-75
2022/03/14 11:22:14;;;;;;;27.70;11.25;;;10.50;99.90;;;;;;5014841;28;20125;-75
2022/03/14 11:24:46;;;;;;;26.30;9.80;;;10.60;99.90;;;;;;5012342;28;20066;-76
2022/03/14 11:27:23;;;;;;;24.10;11.35;;;10.60;99.90;;;;;;5013716;28;20057;-76
2022/03/14 11:29:51;;;;;;;25.20;9.98;;;10.60;99.90;;;;;;5013410;28;20486;-76
2022/03/14 11:32:18;;;;;;;21.33;10.07;;;10.60;99.90;;;;;;5015184;28;20076;-76
2022/03/14 11:34:45;;;;;;;23.92;9.20;;;10.60;99.90;;;;;;5012014;28;20130;-76
2022/03/14 11:37:11;;;;;;;27.95;10.93;;;10.60;99.90;;;;;;4997209;28;20552;-76
2022/03/14 11:39:38;;;;;;;19.90;10.30;;;10.60;99.90;;;;;;5009684;28;20045;-76
2022/03/14 11:42:04;;;;;;;22.27;10.43;;;10.60;99.90;;;;;;4991380;28;20040;-75
2022/03/14 11:44:30;;;;;;;25.50;9.75;;;10.60;99.90;;;;;;4999166;28;20049;-76
2022/03/14 11:46:58;;;;;;;22.38;10.30;;;10.70;99.90;;;;;;5020644;28;21427;-76
2022/03/14 11:49:28;;;;;;;18.00;6.90;;;10.70;99.90;;;;;;5011693;28;20049;-76
2022/03/14 11:52:07;;;;;;;24.63;8.57;;;10.70;99.90;;;;;;5013383;28;20037;-76
2022/03/14 11:54:39;;;;;;;24.92;11.35;;;10.80;99.90;;;;;;5014715;28;20079;-76
2022/03/14 11:57:05;;;;;;;29.40;10.15;;;10.90;99.90;;;;;;5014614;28;20045;-76
2022/03/14 11:59:34;;;;;;;26.67;10.70;;;10.90;99.90;;;;;;5000676;28;20092;-76
2022/03/14 12:02:01;;;;;;;18.48;8.05;;;11.00;99.90;;;;;;4993370;28;20132;-76
2022/03/14 12:04:31;;;;;;;22.05;9.27;;;11.00;99.90;;;;;;5013969;28;20049;-76
2022/03/14 12:06:57;;;;;;;20.58;9.00;;;11.00;99.90;;;;;;5017298;28;20112;-75
2022/03/14 12:09:25;;;;;;;21.27;8.75;;;11.00;99.90;;;;;;4998191;28;20042;-75
2022/03/14 12:11:52;;;;;;;16.75;6.47;;;11.10;99.90;;;;;;5020567;28;20070;-78
2022/03/14 12:14:44;;;;;;;15.35;6.60;;;11.00;99.90;;;;;;5012557;28;20173;-73
2022/03/14 12:17:13;;;;;;;18.80;7.90;;;11.10;99.90;;;;;;5011872;28;20560;-74
2022/03/14 12:19:42;;;;;;;23.73;9.60;;;11.10;99.90;;;;;;4988289;28;20536;-72
2022/03/14 12:22:13;;;;;;;16.50;8.55;;;11.20;99.90;;;;;;5010711;28;20044;-74
2022/03/14 12:24:38;;;;;;;13.43;6.25;;;11.20;99.90;;;;;;5020945;28;20049;-74
2022/03/14 12:27:21;;;;;;;16.30;7.57;;;11.20;99.90;;;;;;5009895;28;20055;-73
2022/03/14 12:29:49;;;;;;;20.23;7.25;;;11.20;99.90;;;;;;4990942;28;20120;-74
2022/03/14 12:32:30;;;;;;;14.45;7.38;;;11.20;99.90;;;;;;4995934;28;20038;-75
2022/03/14 12:35:08;;;;;;;15.02;7.57;;;11.30;99.90;;;;;;5012718;28;20034;-75
2022/03/14 12:37:40;;;;;;;22.50;7.90;;;11.30;99.90;;;;;;5005205;28;20152;-75
2022/03/14 12:40:08;;;;;;;14.18;7.50;;;11.40;99.90;;;;;;5010362;28;20053;-76
2022/03/14 12:42:40;;;;;;;19.77;8.18;;;11.50;99.90;;;;;;5007940;28;20073;-76
2022/03/14 12:45:22;;;;;;;19.45;6.95;;;11.50;99.90;;;;;;5004101;28;20129;-76